sensor_id;sensor_type;location;lat;lon;timestamp;temperature;humidity
61255;DHT22;47128;47.530;8.584;2023-04-09T00:01:03;6.60;99.90
61255;DHT22;47128;47.530;8.584;2023-04-09T00:03:29;6.50;99.90
61255;DHT22;47128;47.530;8.584;2023-04-09T00:05:54;6.50;99.90
61255;DHT22;47128;47.530;8.584;2023-04-09T00:08:20;6.50;99.90
61255;DHT22;47128;47.530;8.584;2023-04-09T00:10:48;6.50;99.90
61255;DHT22;47128;47.530;8.584;2023-04-09T00:13:14;6.60;99.90
61255;DHT22;47128;47.530;8.584;2023-04-09T00:15:39;6.60;99.90
61255;DHT22;47128;47.530;8.584;2023-04-09T00:18:05;6.70;99.90
61255;DHT22;47128;47.530;8.584;2023-04-09T00:20:30;6.60;99.90
61255;DHT22;47128;47.530;8.584;2023-04-09T00:22:56;6.70;99.90
61255;DHT22;47128;47.530;8.584;2023-04-09T00:25:22;6.70;99.90
61255;DHT22;47128;47.530;8.584;2023-04-09T00:27:48;6.70;99.90
61255;DHT22;47128;47.530;8.584;2023-04-09T00:30:14;6.70;99.90
61255;DHT22;47128;47.530;8.584;2023-04-09T00:32:40;6.70;99.90
61255;DHT22;47128;47.530;8.584;2023-04-09T00:35:06;6.70;99.90
61255;DHT22;47128;47.530;8.584;2023-04-09T00:37:31;6.70;99.90
61255;DHT22;47128;47.530;8.584;2023-04-09T00:39:57;6.80;99.90
61255;DHT22;47128;47.530;8.584;2023-04-09T00:42:23;6.80;99.90
61255;DHT22;47128;47.530;8.584;2023-04-09T00:44:51;6.80;99.90
61255;DHT22;47128;47.530;8.584;2023-04-09T00:47:17;6.70;99.90
61255;DHT22;47128;47.530;8.584;2023-04-09T00:49:43;6.60;99.90
61255;DHT22;47128;47.530;8.584;2023-04-09T00:52:09;6.60;99.90
61255;DHT22;47128;47.530;8.584;2023-04-09T00:54:34;6.60;99.90
61255;DHT22;47128;47.530;8.584;2023-04-09T00:57:00;6.60;99.90
61255;DHT22;47128;47.530;8.584;2023-04-09T00:59:26;6.60;99.90
61255;DHT22;47128;47.530;8.584;2023-04-09T01:01:51;6.60;99.90
61255;DHT22;47128;47.530;8.584;2023-04-09T01:04:17;6.70;99.90
61255;DHT22;47128;47.530;8.584;2023-04-09T01:06:50;6.90;99.90
61255;DHT22;47128;47.530;8.584;2023-04-09T01:11:42;6.90;99.90
61255;DHT22;47128;47.530;8.584;2023-04-09T01:14:18;6.90;99.90
61255;DHT22;47128;47.530;8.584;2023-04-09T01:16:46;6.90;99.90
61255;DHT22;47128;47.530;8.584;2023-04-09T01:20:17;7.00;99.90
61255;DHT22;47128;47.530;8.584;2023-04-09T01:25:12;6.90;99.90
61255;DHT22;47128;47.530;8.584;2023-04-09T01:27:38;6.90;99.90
61255;DHT22;47128;47.530;8.584;2023-04-09T01:30:07;6.90;99.90
61255;DHT22;47128;47.530;8.584;2023-04-09T01:32:33;6.80;99.90
61255;DHT22;47128;47.530;8.584;2023-04-09T01:34:59;6.80;99.90
61255;DHT22;47128;47.530;8.584;2023-04-09T01:37:25;6.70;99.90
61255;DHT22;47128;47.530;8.584;2023-04-09T01:39:51;6.80;99.90
61255;DHT22;47128;47.530;8.584;2023-04-09T01:42:18;6.80;99.90
61255;DHT22;47128;47.530;8.584;2023-04-09T01:44:43;6.90;99.90
61255;DHT22;47128;47.530;8.584;2023-04-09T01:47:10;7.00;99.90
61255;DHT22;47128;47.530;8.584;2023-04-09T01:49:37;7.00;99.90
61255;DHT22;47128;47.530;8.584;2023-04-09T01:52:02;7.00;99.90
61255;DHT22;47128;47.530;8.584;2023-04-09T01:54:28;7.00;99.90
61255;DHT22;47128;47.530;8.584;2023-04-09T01:56:56;7.00;99.90
61255;DHT22;47128;47.530;8.584;2023-04-09T01:59:21;7.00;99.90
61255;DHT22;47128;47.530;8.584;2023-04-09T02:01:49;7.00;99.90
61255;DHT22;47128;47.530;8.584;2023-04-09T02:06:47;7.00;99.90
61255;DHT22;47128;47.530;8.584;2023-04-09T02:09:17;6.90;99.90
61255;DHT22;47128;47.530;8.584;2023-04-09T02:11:45;6.90;99.90
61255;DHT22;47128;47.530;8.584;2023-04-09T02:14:12;6.90;99.90
61255;DHT22;47128;47.530;8.584;2023-04-09T02:16:39;7.00;99.90
61255;DHT22;47128;47.530;8.584;2023-04-09T02:19:05;7.00;99.90
61255;DHT22;47128;47.530;8.584;2023-04-09T02:21:30;6.90;99.90
61255;DHT22;47128;47.530;8.584;2023-04-09T02:23:56;6.90;99.90
61255;DHT22;47128;47.530;8.584;2023-04-09T02:26:22;6.90;99.90
61255;DHT22;47128;47.530;8.584;2023-04-09T02:28:48;6.80;99.90
61255;DHT22;47128;47.530;8.584;2023-04-09T02:31:14;6.80;99.90
61255;DHT22;47128;47.530;8.584;2023-04-09T02:33:40;6.70;99.90
61255;DHT22;47128;47.530;8.584;2023-04-09T02:36:09;6.70;99.90
61255;DHT22;47128;47.530;8.584;2023-04-09T02:38:35;6.70;99.90
61255;DHT22;47128;47.530;8.584;2023-04-09T02:41:01;6.60;99.90
61255;DHT22;47128;47.530;8.584;2023-04-09T02:43:26;6.60;99.90
61255;DHT22;47128;47.530;8.584;2023-04-09T02:45:52;6.60;99.90
61255;DHT22;47128;47.530;8.584;2023-04-09T02:48:18;6.50;99.90
61255;DHT22;47128;47.530;8.584;2023-04-09T02:50:44;6.40;99.90
61255;DHT22;47128;47.530;8.584;2023-04-09T02:53:09;6.40;99.90
61255;DHT22;47128;47.530;8.584;2023-04-09T02:55:35;6.30;99.90
61255;DHT22;47128;47.530;8.584;2023-04-09T02:58:01;6.30;99.90
61255;DHT22;47128;47.530;8.584;2023-04-09T03:00:27;6.20;99.90
61255;DHT22;47128;47.530;8.584;2023-04-09T03:02:52;6.20;99.90
61255;DHT22;47128;47.530;8.584;2023-04-09T03:05:17;6.10;99.90
61255;DHT22;47128;47.530;8.584;2023-04-09T03:07:43;6.10;99.90
61255;DHT22;47128;47.530;8.584;2023-04-09T03:10:09;6.20;99.90
61255;DHT22;47128;47.530;8.584;2023-04-09T03:12:34;6.20;99.90
61255;DHT22;47128;47.530;8.584;2023-04-09T03:15:00;6.30;99.90
61255;DHT22;47128;47.530;8.584;2023-04-09T03:17:26;6.30;99.90
61255;DHT22;47128;47.530;8.584;2023-04-09T03:19:52;6.30;99.90
61255;DHT22;47128;47.530;8.584;2023-04-09T03:22:17;6.30;99.90
61255;DHT22;47128;47.530;8.584;2023-04-09T03:24:43;6.30;99.90
61255;DHT22;47128;47.530;8.584;2023-04-09T03:27:09;6.20;99.90
61255;DHT22;47128;47.530;8.584;2023-04-09T03:29:35;6.20;99.90
61255;DHT22;47128;47.530;8.584;2023-04-09T03:32:00;6.10;99.90
61255;DHT22;47128;47.530;8.584;2023-04-09T03:34:26;6.00;99.90
61255;DHT22;47128;47.530;8.584;2023-04-09T03:36:52;5.90;99.90
61255;DHT22;47128;47.530;8.584;2023-04-09T03:39:18;5.80;99.90
61255;DHT22;47128;47.530;8.584;2023-04-09T03:41:43;5.80;99.90
61255;DHT22;47128;47.530;8.584;2023-04-09T03:44:09;5.70;99.90
61255;DHT22;47128;47.530;8.584;2023-04-09T03:46:35;5.70;99.90
61255;DHT22;47128;47.530;8.584;2023-04-09T03:49:00;5.60;99.90
61255;DHT22;47128;47.530;8.584;2023-04-09T03:51:26;5.60;99.90
61255;DHT22;47128;47.530;8.584;2023-04-09T03:53:52;5.50;99.90
61255;DHT22;47128;47.530;8.584;2023-04-09T03:56:18;5.40;99.90
61255;DHT22;47128;47.530;8.584;2023-04-09T03:58:44;5.40;99.90
61255;DHT22;47128;47.530;8.584;2023-04-09T04:01:09;5.30;99.90
61255;DHT22;47128;47.530;8.584;2023-04-09T04:03:35;5.30;99.90
61255;DHT22;47128;47.530;8.584;2023-04-09T04:06:01;5.20;99.90
61255;DHT22;47128;47.530;8.584;2023-04-09T04:08:28;5.20;99.90
61255;DHT22;47128;47.530;8.584;2023-04-09T04:10:54;5.10;99.90
61255;DHT22;47128;47.530;8.584;2023-04-09T04:13:20;5.10;99.90
61255;DHT22;47128;47.530;8.584;2023-04-09T04:15:46;5.00;99.90
61255;DHT22;47128;47.530;8.584;2023-04-09T04:18:11;5.00;99.90
61255;DHT22;47128;47.530;8.584;2023-04-09T04:20:37;5.00;99.90
61255;DHT22;47128;47.530;8.584;2023-04-09T04:23:03;5.10;99.90
61255;DHT22;47128;47.530;8.584;2023-04-09T04:25:29;5.10;99.90
61255;DHT22;47128;47.530;8.584;2023-04-09T04:27:55;5.10;99.90
61255;DHT22;47128;47.530;8.584;2023-04-09T04:30:21;5.10;99.90
61255;DHT22;47128;47.530;8.584;2023-04-09T04:32:47;5.10;99.90
61255;DHT22;47128;47.530;8.584;2023-04-09T04:35:13;5.10;99.90
61255;DHT22;47128;47.530;8.584;2023-04-09T04:37:39;5.00;99.90
61255;DHT22;47128;47.530;8.584;2023-04-09T04:40:05;5.00;99.90
61255;DHT22;47128;47.530;8.584;2023-04-09T04:42:31;5.10;99.90
61255;DHT22;47128;47.530;8.584;2023-04-09T04:44:57;5.10;99.90
61255;DHT22;47128;47.530;8.584;2023-04-09T04:47:22;5.20;99.90
61255;DHT22;47128;47.530;8.584;2023-04-09T04:49:48;5.30;99.90
61255;DHT22;47128;47.530;8.584;2023-04-09T04:52:13;5.30;99.90
61255;DHT22;47128;47.530;8.584;2023-04-09T04:54:39;5.30;99.90
61255;DHT22;47128;47.530;8.584;2023-04-09T04:57:04;5.30;99.90
61255;DHT22;47128;47.530;8.584;2023-04-09T04:59:30;5.40;99.90
61255;DHT22;47128;47.530;8.584;2023-04-09T05:01:56;5.50;99.90
61255;DHT22;47128;47.530;8.584;2023-04-09T05:04:22;5.50;99.90
61255;DHT22;47128;47.530;8.584;2023-04-09T05:06:47;5.50;99.90
61255;DHT22;47128;47.530;8.584;2023-04-09T05:09:13;5.60;99.90
61255;DHT22;47128;47.530;8.584;2023-04-09T05:11:38;5.60;99.90
61255;DHT22;47128;47.530;8.584;2023-04-09T05:14:04;5.60;99.90
61255;DHT22;47128;47.530;8.584;2023-04-09T05:16:30;5.60;99.90
61255;DHT22;47128;47.530;8.584;2023-04-09T05:18:56;5.60;99.90
61255;DHT22;47128;47.530;8.584;2023-04-09T05:21:21;5.60;99.90
61255;DHT22;47128;47.530;8.584;2023-04-09T05:23:47;5.70;99.90
61255;DHT22;47128;47.530;8.584;2023-04-09T05:26:12;5.70;99.90
61255;DHT22;47128;47.530;8.584;2023-04-09T05:28:38;5.80;99.90
61255;DHT22;47128;47.530;8.584;2023-04-09T05:31:03;5.80;99.90
61255;DHT22;47128;47.530;8.584;2023-04-09T05:33:29;5.90;99.90
61255;DHT22;47128;47.530;8.584;2023-04-09T05:35:59;5.80;99.90
61255;DHT22;47128;47.530;8.584;2023-04-09T05:38:25;5.90;99.90
61255;DHT22;47128;47.530;8.584;2023-04-09T05:40:51;5.80;99.90
61255;DHT22;47128;47.530;8.584;2023-04-09T05:43:17;5.80;99.90
61255;DHT22;47128;47.530;8.584;2023-04-09T05:45:43;5.80;99.90
61255;DHT22;47128;47.530;8.584;2023-04-09T05:48:08;5.70;99.90
61255;DHT22;47128;47.530;8.584;2023-04-09T05:50:34;5.70;99.90
61255;DHT22;47128;47.530;8.584;2023-04-09T05:52:59;5.70;99.90
61255;DHT22;47128;47.530;8.584;2023-04-09T05:55:26;5.70;99.90
61255;DHT22;47128;47.530;8.584;2023-04-09T05:57:51;5.70;99.90
61255;DHT22;47128;47.530;8.584;2023-04-09T06:00:17;5.90;99.90
61255;DHT22;47128;47.530;8.584;2023-04-09T06:02:43;6.00;99.90
61255;DHT22;47128;47.530;8.584;2023-04-09T06:05:09;6.10;99.90
61255;DHT22;47128;47.530;8.584;2023-04-09T06:07:35;6.20;99.90
61255;DHT22;47128;47.530;8.584;2023-04-09T06:10:01;6.30;99.90
61255;DHT22;47128;47.530;8.584;2023-04-09T06:12:26;6.50;99.90
61255;DHT22;47128;47.530;8.584;2023-04-09T06:14:52;6.60;99.90
61255;DHT22;47128;47.530;8.584;2023-04-09T06:17:18;6.70;99.90
61255;DHT22;47128;47.530;8.584;2023-04-09T06:19:43;6.80;99.90
61255;DHT22;47128;47.530;8.584;2023-04-09T06:22:09;6.80;99.90
61255;DHT22;47128;47.530;8.584;2023-04-09T06:24:35;6.90;99.90
61255;DHT22;47128;47.530;8.584;2023-04-09T06:27:01;6.90;99.90
61255;DHT22;47128;47.530;8.584;2023-04-09T06:29:26;7.00;99.90
61255;DHT22;47128;47.530;8.584;2023-04-09T06:31:52;7.00;99.90
61255;DHT22;47128;47.530;8.584;2023-04-09T06:34:18;7.00;99.90
61255;DHT22;47128;47.530;8.584;2023-04-09T06:36:43;7.10;99.90
61255;DHT22;47128;47.530;8.584;2023-04-09T06:39:09;7.10;99.90
61255;DHT22;47128;47.530;8.584;2023-04-09T06:41:35;7.20;99.90
61255;DHT22;47128;47.530;8.584;2023-04-09T06:44:00;7.30;99.90
61255;DHT22;47128;47.530;8.584;2023-04-09T06:46:26;7.40;99.90
61255;DHT22;47128;47.530;8.584;2023-04-09T06:48:52;7.60;99.90
61255;DHT22;47128;47.530;8.584;2023-04-09T06:51:17;7.60;99.90
61255;DHT22;47128;47.530;8.584;2023-04-09T06:53:43;7.60;99.90
61255;DHT22;47128;47.530;8.584;2023-04-09T06:56:08;7.60;99.90
61255;DHT22;47128;47.530;8.584;2023-04-09T06:58:34;7.60;99.90
61255;DHT22;47128;47.530;8.584;2023-04-09T07:01:00;7.70;99.90
61255;DHT22;47128;47.530;8.584;2023-04-09T07:03:26;7.80;99.90
61255;DHT22;47128;47.530;8.584;2023-04-09T07:05:53;7.90;99.90
61255;DHT22;47128;47.530;8.584;2023-04-09T07:08:18;8.00;99.90
61255;DHT22;47128;47.530;8.584;2023-04-09T07:10:44;8.00;99.90
61255;DHT22;47128;47.530;8.584;2023-04-09T07:13:11;8.00;99.90
61255;DHT22;47128;47.530;8.584;2023-04-09T07:15:38;8.20;99.90
61255;DHT22;47128;47.530;8.584;2023-04-09T07:18:04;8.30;99.90
61255;DHT22;47128;47.530;8.584;2023-04-09T07:20:30;8.30;99.90
61255;DHT22;47128;47.530;8.584;2023-04-09T07:22:55;8.30;99.90
61255;DHT22;47128;47.530;8.584;2023-04-09T07:25:21;8.30;99.90
61255;DHT22;47128;47.530;8.584;2023-04-09T07:27:47;8.20;99.90
61255;DHT22;47128;47.530;8.584;2023-04-09T07:30:13;8.30;99.90
61255;DHT22;47128;47.530;8.584;2023-04-09T07:32:38;8.50;99.70
61255;DHT22;47128;47.530;8.584;2023-04-09T07:35:05;8.70;99.30
61255;DHT22;47128;47.530;8.584;2023-04-09T07:37:31;9.10;99.00
61255;DHT22;47128;47.530;8.584;2023-04-09T07:39:57;10.20;96.70
61255;DHT22;47128;47.530;8.584;2023-04-09T07:42:23;10.80;95.30
61255;DHT22;47128;47.530;8.584;2023-04-09T07:44:49;11.40;94.40
61255;DHT22;47128;47.530;8.584;2023-04-09T07:47:15;11.90;93.00
61255;DHT22;47128;47.530;8.584;2023-04-09T07:49:41;11.50;92.90
61255;DHT22;47128;47.530;8.584;2023-04-09T07:52:06;10.90;93.50
61255;DHT22;47128;47.530;8.584;2023-04-09T07:54:32;10.20;94.50
61255;DHT22;47128;47.530;8.584;2023-04-09T07:56:58;10.50;94.70
61255;DHT22;47128;47.530;8.584;2023-04-09T07:59:26;10.70;94.00
61255;DHT22;47128;47.530;8.584;2023-04-09T08:01:52;10.50;94.20
61255;DHT22;47128;47.530;8.584;2023-04-09T08:04:18;10.40;94.00
61255;DHT22;47128;47.530;8.584;2023-04-09T08:06:43;10.00;95.00
61255;DHT22;47128;47.530;8.584;2023-04-09T08:09:14;10.00;94.90
61255;DHT22;47128;47.530;8.584;2023-04-09T08:11:40;9.90;95.10
61255;DHT22;47128;47.530;8.584;2023-04-09T08:14:06;10.00;95.30
61255;DHT22;47128;47.530;8.584;2023-04-09T08:16:38;10.20;95.10
61255;DHT22;47128;47.530;8.584;2023-04-09T08:19:04;10.40;94.80
61255;DHT22;47128;47.530;8.584;2023-04-09T08:21:30;11.00;94.10
61255;DHT22;47128;47.530;8.584;2023-04-09T08:23:59;11.70;93.00
61255;DHT22;47128;47.530;8.584;2023-04-09T08:26:29;12.60;92.10
61255;DHT22;47128;47.530;8.584;2023-04-09T08:28:54;13.10;91.20
61255;DHT22;47128;47.530;8.584;2023-04-09T08:31:20;13.30;90.90
61255;DHT22;47128;47.530;8.584;2023-04-09T08:36:30;14.70;86.90
61255;DHT22;47128;47.530;8.584;2023-04-09T08:41:25;15.60;83.00
61255;DHT22;47128;47.530;8.584;2023-04-09T08:43:55;15.90;81.80
61255;DHT22;47128;47.530;8.584;2023-04-09T08:46:20;15.20;81.40
61255;DHT22;47128;47.530;8.584;2023-04-09T08:48:46;15.10;81.80
61255;DHT22;47128;47.530;8.584;2023-04-09T08:51:16;14.40;82.70
61255;DHT22;47128;47.530;8.584;2023-04-09T08:53:43;13.90;84.30
61255;DHT22;47128;47.530;8.584;2023-04-09T08:56:09;13.70;84.40
61255;DHT22;47128;47.530;8.584;2023-04-09T08:58:36;13.90;83.70
61255;DHT22;47128;47.530;8.584;2023-04-09T09:01:01;13.90;84.40
61255;DHT22;47128;47.530;8.584;2023-04-09T09:03:27;13.40;84.50
61255;DHT22;47128;47.530;8.584;2023-04-09T09:05:53;13.20;84.90
61255;DHT22;47128;47.530;8.584;2023-04-09T09:08:22;13.20;85.60
61255;DHT22;47128;47.530;8.584;2023-04-09T09:10:48;13.70;84.30
61255;DHT22;47128;47.530;8.584;2023-04-09T09:18:10;13.90;83.20
61255;DHT22;47128;47.530;8.584;2023-04-09T09:20:36;13.60;83.30
61255;DHT22;47128;47.530;8.584;2023-04-09T09:23:02;14.20;82.20
61255;DHT22;47128;47.530;8.584;2023-04-09T09:25:28;14.80;81.60
61255;DHT22;47128;47.530;8.584;2023-04-09T09:27:55;15.20;79.80
61255;DHT22;47128;47.530;8.584;2023-04-09T09:30:30;15.70;78.30
61255;DHT22;47128;47.530;8.584;2023-04-09T09:33:06;15.40;77.30
61255;DHT22;47128;47.530;8.584;2023-04-09T09:35:45;14.80;78.30
61255;DHT22;47128;47.530;8.584;2023-04-09T09:38:12;14.70;76.60
61255;DHT22;47128;47.530;8.584;2023-04-09T09:40:40;14.50;77.60
61255;DHT22;47128;47.530;8.584;2023-04-09T09:43:06;15.40;77.90
61255;DHT22;47128;47.530;8.584;2023-04-09T09:45:31;15.70;77.10
61255;DHT22;47128;47.530;8.584;2023-04-09T09:47:57;15.90;76.00
61255;DHT22;47128;47.530;8.584;2023-04-09T09:50:23;15.90;76.00
61255;DHT22;47128;47.530;8.584;2023-04-09T09:52:49;16.90;73.20
61255;DHT22;47128;47.530;8.584;2023-04-09T09:55:16;17.20;72.90
61255;DHT22;47128;47.530;8.584;2023-04-09T09:57:43;16.40;73.40
61255;DHT22;47128;47.530;8.584;2023-04-09T10:00:10;15.50;74.60
61255;DHT22;47128;47.530;8.584;2023-04-09T10:02:40;15.10;74.90
61255;DHT22;47128;47.530;8.584;2023-04-09T10:05:08;15.10;74.40
61255;DHT22;47128;47.530;8.584;2023-04-09T10:07:34;15.20;72.40
61255;DHT22;47128;47.530;8.584;2023-04-09T10:10:00;14.90;74.50
61255;DHT22;47128;47.530;8.584;2023-04-09T10:12:26;14.90;75.10
61255;DHT22;47128;47.530;8.584;2023-04-09T10:14:53;15.10;75.60
61255;DHT22;47128;47.530;8.584;2023-04-09T10:17:19;15.60;74.60
61255;DHT22;47128;47.530;8.584;2023-04-09T10:20:00;16.70;73.40
61255;DHT22;47128;47.530;8.584;2023-04-09T10:22:30;17.00;69.00
61255;DHT22;47128;47.530;8.584;2023-04-09T10:24:56;17.50;68.20
61255;DHT22;47128;47.530;8.584;2023-04-09T10:27:22;17.50;69.10
61255;DHT22;47128;47.530;8.584;2023-04-09T10:29:48;18.00;67.30
61255;DHT22;47128;47.530;8.584;2023-04-09T10:32:20;18.50;65.90
61255;DHT22;47128;47.530;8.584;2023-04-09T10:34:47;18.30;66.50
61255;DHT22;47128;47.530;8.584;2023-04-09T10:37:15;18.20;64.90
61255;DHT22;47128;47.530;8.584;2023-04-09T10:39:45;19.10;76.20
61255;DHT22;47128;47.530;8.584;2023-04-09T10:45:09;18.60;73.00
61255;DHT22;47128;47.530;8.584;2023-04-09T10:47:36;17.70;65.10
61255;DHT22;47128;47.530;8.584;2023-04-09T10:52:40;17.30;66.60
61255;DHT22;47128;47.530;8.584;2023-04-09T10:55:08;17.50;64.80
61255;DHT22;47128;47.530;8.584;2023-04-09T10:57:35;17.40;63.90
61255;DHT22;47128;47.530;8.584;2023-04-09T11:00:01;17.00;65.00
61255;DHT22;47128;47.530;8.584;2023-04-09T11:03:28;16.70;66.60
61255;DHT22;47128;47.530;8.584;2023-04-09T11:05:35;16.90;66.60
61255;DHT22;47128;47.530;8.584;2023-04-09T11:08:09;16.90;65.90
61255;DHT22;47128;47.530;8.584;2023-04-09T11:10:40;16.90;67.00
61255;DHT22;47128;47.530;8.584;2023-04-09T11:13:09;16.90;66.40
61255;DHT22;47128;47.530;8.584;2023-04-09T11:15:35;16.50;66.60
61255;DHT22;47128;47.530;8.584;2023-04-09T11:18:03;16.40;66.80
61255;DHT22;47128;47.530;8.584;2023-04-09T11:20:32;16.60;66.40
61255;DHT22;47128;47.530;8.584;2023-04-09T11:22:58;16.90;66.50
61255;DHT22;47128;47.530;8.584;2023-04-09T11:25:24;16.90;66.80
61255;DHT22;47128;47.530;8.584;2023-04-09T11:27:50;17.00;65.60
61255;DHT22;47128;47.530;8.584;2023-04-09T11:30:17;16.20;66.70
61255;DHT22;47128;47.530;8.584;2023-04-09T11:32:42;15.70;67.60
61255;DHT22;47128;47.530;8.584;2023-04-09T11:37:37;15.50;67.90
61255;DHT22;47128;47.530;8.584;2023-04-09T11:40:03;15.90;69.10
61255;DHT22;47128;47.530;8.584;2023-04-09T11:42:32;17.30;70.40
61255;DHT22;47128;47.530;8.584;2023-04-09T11:44:58;18.00;65.00
61255;DHT22;47128;47.530;8.584;2023-04-09T11:47:25;18.70;61.70
61255;DHT22;47128;47.530;8.584;2023-04-09T11:49:51;19.50;59.40
61255;DHT22;47128;47.530;8.584;2023-04-09T11:52:17;19.70;59.90
61255;DHT22;47128;47.530;8.584;2023-04-09T11:54:49;19.10;60.10
61255;DHT22;47128;47.530;8.584;2023-04-09T11:57:15;17.80;62.00
61255;DHT22;47128;47.530;8.584;2023-04-09T11:59:40;16.50;63.40
61255;DHT22;47128;47.530;8.584;2023-04-09T12:02:06;16.60;62.70
61255;DHT22;47128;47.530;8.584;2023-04-09T12:04:32;16.40;63.10
61255;DHT22;47128;47.530;8.584;2023-04-09T12:06:58;16.30;64.10
61255;DHT22;47128;47.530;8.584;2023-04-09T12:09:23;16.10;64.40
61255;DHT22;47128;47.530;8.584;2023-04-09T12:11:49;16.20;67.10
61255;DHT22;47128;47.530;8.584;2023-04-09T12:14:15;15.70;65.30
61255;DHT22;47128;47.530;8.584;2023-04-09T12:16:42;15.70;65.20
61255;DHT22;47128;47.530;8.584;2023-04-09T12:19:11;15.90;63.00
61255;DHT22;47128;47.530;8.584;2023-04-09T12:21:47;16.30;63.00
61255;DHT22;47128;47.530;8.584;2023-04-09T12:24:13;16.50;62.10
61255;DHT22;47128;47.530;8.584;2023-04-09T12:26:38;16.00;63.80
61255;DHT22;47128;47.530;8.584;2023-04-09T12:29:04;15.60;63.70
61255;DHT22;47128;47.530;8.584;2023-04-09T12:31:29;15.50;62.40
61255;DHT22;47128;47.530;8.584;2023-04-09T12:33:55;15.70;63.60
61255;DHT22;47128;47.530;8.584;2023-04-09T12:36:21;15.80;63.30
61255;DHT22;47128;47.530;8.584;2023-04-09T12:38:48;15.60;63.60
61255;DHT22;47128;47.530;8.584;2023-04-09T12:41:14;15.60;61.90
61255;DHT22;47128;47.530;8.584;2023-04-09T12:43:40;15.40;61.10
61255;DHT22;47128;47.530;8.584;2023-04-09T12:46:07;15.40;60.40
61255;DHT22;47128;47.530;8.584;2023-04-09T12:48:33;15.40;61.10
61255;DHT22;47128;47.530;8.584;2023-04-09T12:50:59;15.80;60.70
61255;DHT22;47128;47.530;8.584;2023-04-09T12:53:25;15.90;61.60
61255;DHT22;47128;47.530;8.584;2023-04-09T12:55:50;15.80;61.70
61255;DHT22;47128;47.530;8.584;2023-04-09T12:58:16;15.90;61.20
61255;DHT22;47128;47.530;8.584;2023-04-09T13:00:42;16.10;62.00
61255;DHT22;47128;47.530;8.584;2023-04-09T13:03:07;16.30;62.50
61255;DHT22;47128;47.530;8.584;2023-04-09T13:05:33;16.70;61.80
61255;DHT22;47128;47.530;8.584;2023-04-09T13:08:00;16.60;61.50
61255;DHT22;47128;47.530;8.584;2023-04-09T13:10:27;16.20;62.20
61255;DHT22;47128;47.530;8.584;2023-04-09T13:12:52;15.30;63.50
61255;DHT22;47128;47.530;8.584;2023-04-09T13:15:18;15.40;61.80
61255;DHT22;47128;47.530;8.584;2023-04-09T13:17:44;15.70;58.80
61255;DHT22;47128;47.530;8.584;2023-04-09T13:20:10;15.90;60.50
61255;DHT22;47128;47.530;8.584;2023-04-09T13:22:35;15.80;59.60
61255;DHT22;47128;47.530;8.584;2023-04-09T13:25:02;15.90;60.40
61255;DHT22;47128;47.530;8.584;2023-04-09T13:27:27;16.00;59.90
61255;DHT22;47128;47.530;8.584;2023-04-09T13:29:53;15.60;60.00
61255;DHT22;47128;47.530;8.584;2023-04-09T13:32:19;15.20;60.30
61255;DHT22;47128;47.530;8.584;2023-04-09T13:34:46;15.30;61.10
61255;DHT22;47128;47.530;8.584;2023-04-09T13:37:12;15.60;61.80
61255;DHT22;47128;47.530;8.584;2023-04-09T13:39:37;15.80;60.40
61255;DHT22;47128;47.530;8.584;2023-04-09T13:42:03;15.70;60.90
61255;DHT22;47128;47.530;8.584;2023-04-09T13:44:28;15.70;59.70
61255;DHT22;47128;47.530;8.584;2023-04-09T13:46:54;15.60;60.30
61255;DHT22;47128;47.530;8.584;2023-04-09T13:49:20;15.80;60.00
61255;DHT22;47128;47.530;8.584;2023-04-09T13:51:46;15.80;60.00
61255;DHT22;47128;47.530;8.584;2023-04-09T13:54:11;15.80;59.70
61255;DHT22;47128;47.530;8.584;2023-04-09T13:56:37;15.90;59.00
61255;DHT22;47128;47.530;8.584;2023-04-09T13:59:03;15.70;58.10
61255;DHT22;47128;47.530;8.584;2023-04-09T14:01:29;15.50;59.40
61255;DHT22;47128;47.530;8.584;2023-04-09T14:03:55;15.70;59.80
61255;DHT22;47128;47.530;8.584;2023-04-09T14:06:21;15.70;60.10
61255;DHT22;47128;47.530;8.584;2023-04-09T14:08:46;15.80;59.60
61255;DHT22;47128;47.530;8.584;2023-04-09T14:11:12;15.50;59.70
61255;DHT22;47128;47.530;8.584;2023-04-09T14:13:40;15.50;60.00
61255;DHT22;47128;47.530;8.584;2023-04-09T14:16:06;15.30;59.70
61255;DHT22;47128;47.530;8.584;2023-04-09T14:18:32;15.20;68.10
61255;DHT22;47128;47.530;8.584;2023-04-09T14:20:58;15.50;70.40
61255;DHT22;47128;47.530;8.584;2023-04-09T14:23:24;15.30;65.70
61255;DHT22;47128;47.530;8.584;2023-04-09T14:25:50;15.10;65.20
61255;DHT22;47128;47.530;8.584;2023-04-09T14:28:17;15.10;61.80
61255;DHT22;47128;47.530;8.584;2023-04-09T14:30:43;15.00;60.10
61255;DHT22;47128;47.530;8.584;2023-04-09T14:33:08;15.00;60.50
61255;DHT22;47128;47.530;8.584;2023-04-09T14:35:34;15.20;60.00
61255;DHT22;47128;47.530;8.584;2023-04-09T14:37:59;15.50;59.60
61255;DHT22;47128;47.530;8.584;2023-04-09T14:40:31;15.60;59.30
61255;DHT22;47128;47.530;8.584;2023-04-09T14:42:57;15.90;59.70
61255;DHT22;47128;47.530;8.584;2023-04-09T14:45:23;15.90;59.20
61255;DHT22;47128;47.530;8.584;2023-04-09T14:47:49;15.70;59.00
61255;DHT22;47128;47.530;8.584;2023-04-09T14:50:15;15.70;58.80
61255;DHT22;47128;47.530;8.584;2023-04-09T14:52:45;15.50;59.10
61255;DHT22;47128;47.530;8.584;2023-04-09T14:55:12;15.70;59.40
61255;DHT22;47128;47.530;8.584;2023-04-09T14:57:38;15.60;58.90
61255;DHT22;47128;47.530;8.584;2023-04-09T15:00:06;15.60;58.90
61255;DHT22;47128;47.530;8.584;2023-04-09T15:02:32;15.80;59.00
61255;DHT22;47128;47.530;8.584;2023-04-09T15:04:59;15.80;59.00
61255;DHT22;47128;47.530;8.584;2023-04-09T15:07:25;15.70;59.30
61255;DHT22;47128;47.530;8.584;2023-04-09T15:09:51;15.60;58.80
61255;DHT22;47128;47.530;8.584;2023-04-09T15:12:17;15.50;59.30
61255;DHT22;47128;47.530;8.584;2023-04-09T15:14:43;15.60;59.20
61255;DHT22;47128;47.530;8.584;2023-04-09T15:17:09;15.60;59.10
61255;DHT22;47128;47.530;8.584;2023-04-09T15:19:34;15.30;59.50
61255;DHT22;47128;47.530;8.584;2023-04-09T15:22:00;15.20;59.40
61255;DHT22;47128;47.530;8.584;2023-04-09T15:24:25;15.00;59.30
61255;DHT22;47128;47.530;8.584;2023-04-09T15:26:51;15.00;59.50
61255;DHT22;47128;47.530;8.584;2023-04-09T15:29:17;15.10;59.40
61255;DHT22;47128;47.530;8.584;2023-04-09T15:31:42;15.20;58.90
61255;DHT22;47128;47.530;8.584;2023-04-09T15:34:08;15.20;59.70
61255;DHT22;47128;47.530;8.584;2023-04-09T15:36:34;15.50;58.70
61255;DHT22;47128;47.530;8.584;2023-04-09T15:39:03;15.40;58.80
61255;DHT22;47128;47.530;8.584;2023-04-09T15:41:29;15.30;58.80
61255;DHT22;47128;47.530;8.584;2023-04-09T15:43:56;15.50;59.10
61255;DHT22;47128;47.530;8.584;2023-04-09T15:46:22;15.30;58.60
61255;DHT22;47128;47.530;8.584;2023-04-09T15:48:48;15.40;58.90
61255;DHT22;47128;47.530;8.584;2023-04-09T15:51:13;15.40;59.10
61255;DHT22;47128;47.530;8.584;2023-04-09T15:53:39;15.30;58.40
61255;DHT22;47128;47.530;8.584;2023-04-09T15:56:05;15.10;58.60
61255;DHT22;47128;47.530;8.584;2023-04-09T15:58:31;15.20;59.00